createdAt,value
2019-03-11T00:02:08.527Z,36
2019-03-11T00:07:08.496Z,36
2019-03-11T00:12:08.532Z,40
2019-03-11T00:17:08.515Z,42
2019-03-11T00:22:08.497Z,42
2019-03-11T00:27:08.478Z,42
2019-03-11T00:32:08.513Z,41
2019-03-11T00:37:08.497Z,39
2019-03-11T00:42:08.464Z,40
2019-03-11T00:47:08.476Z,37
2019-03-11T00:52:08.467Z,41
2019-03-11T00:57:08.512Z,33
2019-03-11T01:02:08.461Z,36
2019-03-11T01:07:10.187Z,34
2019-03-11T01:12:08.450Z,28
2019-03-11T01:17:08.474Z,24
2019-03-11T01:22:08.405Z,24
2019-03-11T01:27:08.430Z,22
2019-03-11T01:32:08.409Z,26
2019-03-11T01:37:08.448Z,23
2019-03-11T01:42:08.392Z,24
2019-03-11T01:47:08.407Z,22
2019-03-11T01:52:08.424Z,21
2019-03-11T01:57:08.426Z,20
2019-03-11T02:02:08.430Z,25
2019-03-11T02:07:08.390Z,17
2019-03-11T02:12:08.364Z,22
2019-03-11T02:17:08.368Z,18
2019-03-11T02:22:08.415Z,23
2019-03-11T02:27:08.391Z,20
2019-03-11T02:32:08.346Z,16
2019-03-11T02:37:08.404Z,15
2019-03-11T02:42:08.387Z,20
2019-03-11T02:47:08.438Z,16
2019-03-11T02:52:08.327Z,17
2019-03-11T02:57:08.334Z,18
2019-03-11T03:02:08.314Z,19
2019-03-11T03:07:08.305Z,22
2019-03-11T03:12:08.352Z,19
2019-03-11T03:17:08.334Z,20
2019-03-11T03:22:08.319Z,20
2019-03-11T03:27:08.327Z,19
2019-03-11T03:32:08.322Z,17
2019-03-11T03:37:08.285Z,20
2019-03-11T03:42:08.302Z,17
2019-03-11T03:47:08.319Z,18
2019-03-11T03:52:08.293Z,15
2019-03-11T03:57:08.286Z,15
2019-03-11T04:02:08.272Z,16
2019-03-11T04:07:08.270Z,17
2019-03-11T04:12:08.260Z,17
2019-03-11T04:17:08.230Z,15
2019-03-11T04:22:08.269Z,16
2019-03-11T04:27:08.271Z,17
2019-03-11T04:32:08.191Z,18
2019-03-11T04:37:08.213Z,17
2019-03-11T04:42:08.245Z,15
2019-03-11T04:47:08.214Z,21
2019-03-11T04:52:08.197Z,20
2019-03-11T04:57:08.223Z,19
2019-03-11T05:02:08.260Z,23
2019-03-11T05:07:08.182Z,25
2019-03-11T05:12:08.167Z,24
2019-03-11T05:17:08.231Z,28
2019-03-11T16:25:30.941Z,5
2019-03-11T16:30:30.933Z,4
2019-03-11T16:35:30.910Z,5
2019-03-11T16:40:30.932Z,5
2019-03-11T16:45:30.864Z,5
2019-03-11T16:50:30.864Z,8
2019-03-11T16:55:30.877Z,6
2019-03-11T17:00:30.918Z,6
2019-03-11T17:05:30.870Z,5
2019-03-11T17:10:30.911Z,5
2019-03-11T17:15:30.845Z,7
2019-03-11T17:20:30.839Z,6
2019-03-11T17:35:16.909Z,4
2019-03-11T17:40:16.906Z,6
2019-03-11T17:45:16.868Z,6
2019-03-11T17:50:16.871Z,7
2019-03-11T17:55:16.817Z,7
2019-03-11T18:00:16.869Z,6
2019-03-11T18:05:16.855Z,7
2019-03-11T18:10:19.566Z,6
2019-03-11T18:15:16.828Z,7
2019-03-11T18:20:16.966Z,7
2019-03-11T18:35:54.383Z,11
2019-03-11T18:40:54.658Z,10
2019-03-11T18:45:54.330Z,8
2019-03-11T18:50:54.282Z,8
2019-03-11T18:55:54.313Z,8
2019-03-11T19:00:54.257Z,8
2019-03-11T19:05:54.324Z,8
2019-03-11T19:10:54.302Z,13
2019-03-11T19:15:54.273Z,11
2019-03-11T19:20:55.035Z,8
2019-03-11T19:25:56.421Z,8
2019-03-11T19:30:56.906Z,12
2019-03-11T19:35:55.060Z,18
2019-03-11T19:40:54.981Z,12
2019-03-11T19:50:55.151Z,11
2019-03-11T19:55:54.967Z,10
2019-03-11T20:00:54.960Z,10
2019-03-11T20:05:55.144Z,7
2019-03-11T20:10:55.023Z,7
2019-03-11T20:15:56.442Z,7
2019-03-11T20:20:55.698Z,9
2019-03-11T20:25:55.831Z,7
2019-03-11T20:30:55.830Z,9
2019-03-11T20:35:55.801Z,10
2019-03-11T20:40:55.765Z,6
2019-03-11T20:45:55.769Z,9
2019-03-11T20:50:55.732Z,9
2019-03-11T20:55:55.755Z,8
2019-03-11T21:00:55.820Z,9
2019-03-11T21:05:55.705Z,8
2019-03-11T21:10:55.693Z,8
2019-03-11T21:15:55.668Z,6
2019-03-11T21:21:05.614Z,8
2019-03-11T21:25:57.245Z,8
2019-03-11T21:30:55.685Z,5
2019-03-11T21:35:55.728Z,9
2019-03-11T21:40:55.927Z,9
2019-03-11T21:45:55.625Z,10
2019-03-11T21:56:47.910Z,11
2019-03-11T22:01:47.781Z,14
2019-03-11T22:06:47.772Z,13
2019-03-11T22:11:47.755Z,11
2019-03-11T22:16:47.728Z,15
2019-03-11T22:21:47.733Z,13
2019-03-11T22:26:47.724Z,14
2019-03-11T22:31:47.722Z,12
2019-03-11T22:36:47.712Z,12
2019-03-11T22:41:47.749Z,10
2019-03-11T22:46:47.812Z,11
2019-03-11T22:51:47.680Z,11
2019-03-11T22:56:47.712Z,13
2019-03-11T23:01:47.722Z,11
2019-03-11T23:06:47.660Z,13
2019-03-11T23:11:47.704Z,15
2019-03-11T23:16:47.684Z,15
2019-03-11T23:21:47.639Z,15
2019-03-11T23:26:47.627Z,16
2019-03-11T23:31:47.702Z,13
2019-03-11T23:36:47.664Z,15
2019-03-11T23:41:47.658Z,17
2019-03-11T23:46:47.637Z,15
2019-03-11T23:51:47.619Z,15
2019-03-11T23:56:47.631Z,13
